Terminal Aerodrome Forecast
Issued by NWS Missoula, MT

Home | Current Version | Previous Version | Text Only | Print | Product List | Glossary On
Versions: 1 2 3 4 5 6 7 8 9 10 11 12
000
FTUS45 KMSO 200500
TAFBTM
TAF
KBTM 200520Z 2006/2106 31007KT P6SM SCT090
     FM200900 30012KT P6SM VCSH BKN060 OVC080
     FM201700 29014G24KT P6SM SCT080 BKN120
     FM210300 14002KT P6SM SKC=

USA.gov is the U.S. government's official web portal to all federal, state and local government web resources and services.